Time;durP1;ratioP1;P1;durP2;ratioP2;P2;SDS_P1;SDS_P2;PMS_P1;PMS_P2;Temp;Humidity;BMP_temperature;BMP_pressure;BME280_temperature;BME280_humidity;BME280_pressure;Samples;Min_cycle;Max_cycle;Signal;HPM_P1;HPM_P2
2023/11/30 00:00:42;;;;;;;;;;;;;;;0.27;59.70;99509.78;4453320;32;32032;-87
2023/11/30 00:03:10;;;;;;;;;;;;;;;0.25;59.39;99507.22;4463002;32;32661;-88
2023/11/30 00:05:37;;;;;;;;;;;;;;;0.40;58.77;99506.25;4462474;32;34002;-87
2023/11/30 00:08:05;;;;;;;;;;;;;;;0.42;58.58;99504.47;4456194;32;32972;-87
2023/11/30 00:10:32;;;;;;;;;;;;;;;0.32;58.98;99508.88;4448504;32;32157;-88
2023/11/30 00:13:00;;;;;;;;;;;;;;;0.65;58.28;99506.91;4461838;32;34151;-87
2023/11/30 00:15:28;;;;;;;;;;;;;;;0.45;58.79;99496.69;4462361;32;33240;-87
2023/11/30 00:17:56;;;;;;;;;;;;;;;0.43;59.20;99498.44;4473568;32;34454;-87
2023/11/30 00:20:23;;;;;;;;;;;;;;;0.42;59.24;99491.50;4463781;32;32522;-87
2023/11/30 00:22:50;;;;;;;;;;;;;;;0.51;59.12;99494.03;4451274;32;32976;-87
2023/11/30 00:25:26;;;;;;;;;;;;;;;0.79;57.39;99504.19;4462354;32;33489;-87
2023/11/30 00:27:54;;;;;;;;;;;;;;;0.39;58.94;99502.78;4461479;32;33090;-87
2023/11/30 00:30:21;;;;;;;;;;;;;;;0.40;59.22;99495.84;4463214;32;33793;-87
2023/11/30 00:32:49;;;;;;;;;;;;;;;0.63;58.55;99491.34;4470032;32;34049;-87
2023/11/30 00:35:17;;;;;;;;;;;;;;;0.57;58.78;99498.31;4450068;32;33940;-87
2023/11/30 00:37:44;;;;;;;;;;;;;;;0.51;58.61;99494.03;4464157;32;34096;-87
2023/11/30 00:40:12;;;;;;;;;;;;;;;0.50;58.64;99500.09;4460532;32;33050;-87
2023/11/30 00:42:40;;;;;;;;;;;;;;;0.28;58.90;99495.94;4464920;32;33861;-87
2023/11/30 00:45:08;;;;;;;;;;;;;;;0.33;nan;99500.22;4449602;32;34277;-87
2023/11/30 00:47:36;;;;;;;;;;;;;;;0.32;59.08;99498.50;4449778;32;32895;-87
2023/11/30 00:50:05;;;;;;;;;;;;;;;0.45;59.04;99494.94;4468774;32;32333;-87
2023/11/30 00:52:33;;;;;;;;;;;;;;;0.76;58.32;99492.09;4462875;32;32897;-87
2023/11/30 00:55:00;;;;;;;;;;;;;;;0.62;58.76;99486.12;4449456;32;33776;-87
2023/11/30 00:57:29;;;;;;;;;;;;;;;0.54;58.56;99488.81;4462899;32;33903;-87
2023/11/30 01:00:00;;;;;;;;;;;;;;;0.42;58.86;99484.56;4464769;32;31899;-87
2023/11/30 01:02:27;;;;;;;;;;;;;;;0.47;59.20;99494.91;4448207;32;33214;-87
2023/11/30 01:04:55;;;;;;;;;;;;;;;0.57;59.23;99483.59;4465573;32;32967;-87
2023/11/30 01:07:23;;;;;;;;;;;;;;;0.54;59.13;99488.81;4462327;32;34366;-87
2023/11/30 01:09:51;;;;;;;;;;;;;;;0.42;59.36;99483.69;4466409;32;33307;-87
2023/11/30 01:12:18;;;;;;;;;;;;;;;0.55;59.05;99490.53;4463434;32;34018;-87
2023/11/30 01:14:46;;;;;;;;;;;;;;;0.45;59.04;99484.53;4475022;32;35486;-87
2023/11/30 01:17:13;;;;;;;;;;;;;;;0.33;59.79;99488.97;4465374;32;34095;-87
2023/11/30 01:19:41;;;;;;;;;;;;;;;0.45;59.48;99488.88;4452812;32;31784;-87
2023/11/30 01:22:08;;;;;;;;;;;;;;;0.57;58.92;99494.00;4465824;32;34116;-87
2023/11/30 01:24:36;;;;;;;;;;;;;;;0.54;59.14;99488.81;4449339;32;34430;-87
2023/11/30 01:27:04;;;;;;;;;;;;;;;0.67;58.48;99484.38;4461569;32;33379;-88
2023/11/30 01:29:32;;;;;;;;;;;;;;;0.50;59.25;99477.56;4468655;32;32171;-87
2023/11/30 01:31:59;;;;;;;;;;;;;;;0.60;58.76;99472.31;4466367;32;33931;-87
2023/11/30 01:34:28;;;;;;;;;;;;;;;0.45;58.68;99460.31;4475407;32;34663;-87
2023/11/30 01:36:55;;;;;;;;;;;;;;;0.50;58.83;99471.53;4462804;32;34313;-87
2023/11/30 01:39:23;;;;;;;;;;;;;;;0.47;58.78;99466.34;4452321;32;33174;-87
2023/11/30 01:41:50;;;;;;;;;;;;;;;0.39;59.27;99458.63;4467294;32;34634;-87
2023/11/30 01:44:18;;;;;;;;;;;;;;;0.56;59.05;99460.22;4450313;32;33445;-87
2023/11/30 01:46:45;;;;;;;;;;;;;;;0.45;59.33;99458.56;4465036;32;31729;-87
2023/11/30 01:49:13;;;;;;;;;;;;;;;0.40;59.87;99467.28;4464671;32;34082;-87
2023/11/30 01:51:41;;;;;;;;;;;;;;;0.55;59.28;99464.53;4462488;32;33263;-87
2023/11/30 01:54:08;;;;;;;;;;;;;;;0.48;nan;99468.09;4474213;32;34158;-86
2023/11/30 01:56:37;;;;;;;;;;;;;;;0.31;59.77;99465.63;4454311;32;33026;-87
2023/11/30 01:59:04;;;;;;;;;;;;;;;0.25;59.79;99461.34;4469500;32;33269;-87
2023/11/30 02:01:32;;;;;;;;;;;;;;;0.45;59.07;99468.09;4462287;32;34129;-86
2023/11/30 02:04:21;;;;;;;;;;;;;;;0.49;58.85;99462.00;4462631;32;34382;-87
2023/11/30 02:06:48;;;;;;;;;;;;;;;0.29;59.89;99472.56;4481439;31;33366;-87
2023/11/30 02:09:16;;;;;;;;;;;;;;;0.48;58.87;99468.09;4474647;32;33000;-86
2023/11/30 02:11:44;;;;;;;;;;;;;;;0.45;58.90;99457.72;4463726;32;33796;-87
2023/11/30 02:14:11;;;;;;;;;;;;;;;0.50;58.56;99458.53;4462737;32;33166;-87
2023/11/30 02:16:39;;;;;;;;;;;;;;;0.45;58.83;99452.50;4476442;32;34125;-87
2023/11/30 02:19:06;;;;;;;;;;;;;;;0.50;59.20;99449.00;4469748;32;32640;-87
2023/11/30 02:21:34;;;;;;;;;;;;;;;0.32;59.75;99451.75;4459820;32;32983;-87
2023/11/30 02:24:02;;;;;;;;;;;;;;;0.29;59.59;99450.94;4461578;32;33589;-87
2023/11/30 02:26:29;;;;;;;;;;;;;;;0.54;59.25;99454.19;4464928;32;34155;-87
2023/11/30 02:28:57;;;;;;;;;;;;;;;0.32;58.76;99450.88;4461079;32;33594;-87
2023/11/30 02:31:24;;;;;;;;;;;;;;;0.46;59.48;99443.84;4448530;32;32985;-87
2023/11/30 02:33:52;;;;;;;;;;;;;;;0.36;59.72;99444.81;4462776;32;33255;-87
2023/11/30 02:36:20;;;;;;;;;;;;;;;0.46;59.87;99439.50;4467054;32;34051;-87
2023/11/30 02:38:47;;;;;;;;;;;;;;;0.60;59.35;99436.78;4476649;32;33492;-87
2023/11/30 02:41:16;;;;;;;;;;;;;;;0.79;59.19;99434.00;4475520;32;34828;-87
2023/11/30 02:43:44;;;;;;;;;;;;;;;0.48;60.76;99442.13;4460893;32;33787;-87
2023/11/30 02:46:12;;;;;;;;;;;;;;;0.59;61.91;99434.22;4459824;32;34293;-87
2023/11/30 02:48:39;;;;;;;;;;;;;;;0.73;62.29;99425.41;4465267;32;31833;-87
2023/11/30 02:51:07;;;;;;;;;;;;;;;0.76;62.32;99435.78;4462718;32;34873;-87
2023/11/30 02:53:34;;;;;;;;;;;;;;;0.56;63.79;99440.28;4462166;32;34002;-87
2023/11/30 02:56:02;;;;;;;;;;;;;;;0.85;63.22;99440.00;4474426;32;34170;-87
2023/11/30 02:58:30;;;;;;;;;;;;;;;0.98;62.82;99432.94;4461793;32;33472;-87
2023/11/30 03:00:58;;;;;;;;;;;;;;;0.85;63.28;99421.81;4462080;32;33573;-87
2023/11/30 03:03:25;;;;;;;;;;;;;;;0.96;62.73;99414.78;4474179;32;34837;-87
2023/11/30 03:05:54;;;;;;;;;;;;;;;1.28;61.51;99400.50;4463279;32;34070;-87
2023/11/30 03:08:22;;;;;;;;;;;;;;;1.05;62.31;99408.63;4463879;32;32305;-87
2023/11/30 03:10:50;;;;;;;;;;;;;;;1.12;62.30;99394.66;4448370;32;32876;-87
2023/11/30 03:13:18;;;;;;;;;;;;;;;1.30;61.49;99392.72;4462207;32;34569;-88
2023/11/30 03:15:46;;;;;;;;;;;;;;;1.36;61.05;99387.41;4463047;32;33257;-87
2023/11/30 03:18:14;;;;;;;;;;;;;;;1.52;60.90;99388.97;4450732;32;33500;-87
2023/11/30 03:20:42;;;;;;;;;;;;;;;1.69;59.99;99380.88;4465561;32;33819;-87
2023/11/30 03:23:09;;;;;;;;;;;;;;;1.38;60.68;99383.06;4455787;32;33331;-87
2023/11/30 03:25:39;;;;;;;;;;;;;;;1.61;60.20;99381.00;4447680;32;33135;-87
2023/11/30 03:28:06;;;;;;;;;;;;;;;1.54;60.46;99387.19;4451597;32;32223;-87
2023/11/30 03:30:34;;;;;;;;;;;;;;;1.82;59.81;99389.38;4463621;32;34409;-87
2023/11/30 03:33:02;;;;;;;;;;;;;;;1.66;59.92;99402.62;4455504;32;34224;-87
2023/11/30 03:35:29;;;;;;;;;;;;;;;2.01;58.85;99390.84;4462938;32;32893;-87
2023/11/30 03:37:57;;;;;;;;;;;;;;;1.96;59.29;99390.03;4460267;32;32508;-87
2023/11/30 03:40:24;;;;;;;;;;;;;;;2.17;58.48;99394.91;4459912;32;33638;-87
2023/11/30 03:42:52;;;;;;;;;;;;;;;1.78;59.62;99396.38;4474399;32;33972;-87
2023/11/30 03:45:21;;;;;;;;;;;;;;;1.76;59.74;99373.00;4461690;32;32955;-87
2023/11/30 03:47:49;;;;;;;;;;;;;;;1.73;59.50;99370.41;4464025;32;32582;-88
2023/11/30 03:50:16;;;;;;;;;;;;;;;1.87;59.33;99354.59;4466413;32;33457;-88
2023/11/30 03:52:44;;;;;;;;;;;;;;;1.63;59.73;99353.22;4473070;32;33846;-88
2023/11/30 03:55:13;;;;;;;;;;;;;;;1.68;60.18;99348.81;4462131;32;34721;-88
2023/11/30 03:57:41;;;;;;;;;;;;;;;2.04;59.12;99331.75;4461564;32;33626;-87
2023/11/30 04:00:12;;;;;;;;;;;;;;;1.93;58.61;99327.59;4451993;32;32678;-87
2023/11/30 04:02:41;;;;;;;;;;;;;;;1.74;59.85;99321.81;4462104;32;35694;-87
2023/11/30 04:05:13;;;;;;;;;;;;;;;2.33;58.27;99326.91;4446342;32;33892;-87
2023/11/30 04:07:42;;;;;;;;;;;;;;;1.96;58.79;99327.56;4464334;32;32274;-87
2023/11/30 04:10:10;;;;;;;;;;;;;;;2.26;58.43;99315.75;4450577;32;33154;-87
2023/11/30 04:12:37;;;;;;;;;;;;;;;2.24;58.03;99325.34;4448548;32;33131;-87
2023/11/30 04:15:06;;;;;;;;;;;;;;;2.10;58.66;99322.97;4448859;32;32907;-87
2023/11/30 04:17:34;;;;;;;;;;;;;;;2.22;58.24;99314.94;4474068;32;33336;-87
2023/11/30 04:20:02;;;;;;;;;;;;;;;2.34;58.03;99313.88;4448390;32;33268;-87
2023/11/30 04:22:30;;;;;;;;;;;;;;;2.10;58.40;99304.75;4460097;32;34635;-87
2023/11/30 04:24:58;;;;;;;;;;;;;;;1.85;nan;99303.41;4472935;32;34378;-87
2023/11/30 04:27:25;;;;;;;;;;;;;;;2.13;58.21;99294.25;4463681;32;33292;-87
2023/11/30 04:29:53;;;;;;;;;;;;;;;1.60;60.09;99298.59;4458488;32;33985;-86
2023/11/30 04:32:21;;;;;;;;;;;;;;;1.77;59.73;99281.00;4462281;32;33609;-88
2023/11/30 04:34:48;;;;;;;;;;;;;;;1.80;59.67;99272.25;4447773;32;32989;-87
2023/11/30 04:37:16;;;;;;;;;;;;;;;2.14;58.88;99272.56;4455158;32;32328;-88
2023/11/30 04:39:45;;;;;;;;;;;;;;;2.01;58.96;99287.53;4449419;32;33982;-87
2023/11/30 04:42:12;;;;;;;;;;;;;;;2.06;59.14;99274.44;4469540;32;34901;-87
2023/11/30 04:44:40;;;;;;;;;;;;;;;2.12;58.75;99268.25;4464411;32;34170;-87
2023/11/30 04:47:08;;;;;;;;;;;;;;;2.02;59.67;99264.94;4473496;32;33918;-87
2023/11/30 04:49:35;;;;;;;;;;;;;;;2.09;58.77;99258.75;4448507;32;34469;-87
2023/11/30 04:52:03;;;;;;;;;;;;;;;2.45;58.07;99270.22;4447996;32;33713;-87
2023/11/30 04:54:30;;;;;;;;;;;;;;;2.31;58.33;99264.41;4455742;32;32412;-88
2023/11/30 04:56:57;;;;;;;;;;;;;;;2.21;58.27;99268.09;4460610;32;33398;-87
2023/11/30 04:59:25;;;;;;;;;;;;;;;2.42;58.18;99253.78;4461891;32;33804;-87
2023/11/30 05:01:53;;;;;;;;;;;;;;;2.15;58.59;99256.03;4449861;32;33120;-87
2023/11/30 05:04:21;;;;;;;;;;;;;;;2.36;58.19;99244.34;4456119;32;34418;-87
2023/11/30 05:06:49;;;;;;;;;;;;;;;2.09;58.50;99240.53;4476668;32;34060;-87
2023/11/30 05:09:16;;;;;;;;;;;;;;;1.77;59.61;99247.16;4473451;32;33194;-87
2023/11/30 05:11:44;;;;;;;;;;;;;;;1.93;59.44;99236.47;4472748;32;32605;-87
2023/11/30 05:14:11;;;;;;;;;;;;;;;1.43;60.73;99249.44;4460450;32;33154;-87
2023/11/30 05:16:38;;;;;;;;;;;;;;;1.76;60.21;99252.41;4449084;32;33240;-87
2023/11/30 05:19:06;;;;;;;;;;;;;;;1.97;58.85;99258.97;4461908;32;34074;-87
2023/11/30 05:21:34;;;;;;;;;;;;;;;1.81;59.28;99249.72;4475276;32;34087;-87
2023/11/30 05:24:02;;;;;;;;;;;;;;;1.81;59.38;99250.56;4452843;32;33338;-87
2023/11/30 05:26:29;;;;;;;;;;;;;;;1.66;59.61;99246.47;4459273;32;32901;-87
2023/11/30 05:28:57;;;;;;;;;;;;;;;1.75;59.09;99253.25;4461157;32;32726;-87
2023/11/30 05:31:24;;;;;;;;;;;;;;;2.03;58.68;99257.09;4461930;32;32855;-86
2023/11/30 05:33:52;;;;;;;;;;;;;;;2.03;58.72;99261.44;4459807;32;33568;-87
2023/11/30 05:36:20;;;;;;;;;;;;;;;2.04;58.94;99244.94;4462805;32;32297;-87
2023/11/30 05:38:47;;;;;;;;;;;;;;;2.07;58.95;99237.06;4468534;32;33085;-87
2023/11/30 05:41:16;;;;;;;;;;;;;;;2.24;58.66;99231.56;4461302;32;34059;-88
2023/11/30 05:43:44;;;;;;;;;;;;;;;2.13;59.20;99223.06;4472153;32;34007;-88
2023/11/30 05:46:12;;;;;;;;;;;;;;;2.20;58.91;99220.34;4468746;32;31989;-87
2023/11/30 05:48:40;;;;;;;;;;;;;;;2.19;58.68;99221.22;4462625;32;33895;-87
2023/11/30 05:51:08;;;;;;;;;;;;;;;1.99;59.64;99228.53;4476848;32;32928;-87
2023/11/30 05:53:36;;;;;;;;;;;;;;;2.31;58.60;99234.00;4472685;32;34796;-87
2023/11/30 05:56:03;;;;;;;;;;;;;;;2.23;58.95;99228.09;4453050;32;32570;-87
2023/11/30 05:58:32;;;;;;;;;;;;;;;2.54;58.12;99227.50;4461883;32;34423;-88
2023/11/30 06:00:59;;;;;;;;;;;;;;;2.88;57.04;99221.56;4477487;31;34160;-88
2023/11/30 06:03:27;;;;;;;;;;;;;;;2.38;58.10;99220.88;4438160;32;36367;-88
2023/11/30 06:05:55;;;;;;;;;;;;;;;2.33;58.57;99225.28;4464676;32;33805;-87
2023/11/30 06:08:24;;;;;;;;;;;;;;;2.41;58.15;99221.66;4465780;32;32250;-87
2023/11/30 06:10:52;;;;;;;;;;;;;;;2.90;57.08;99222.41;4461312;32;34390;-86
2023/11/30 06:13:21;;;;;;;;;;;;;;;2.58;57.91;99217.88;4462467;32;34444;-87
2023/11/30 06:15:49;;;;;;;;;;;;;;;2.83;57.35;99209.47;4457169;32;33206;-87
2023/11/30 06:18:17;;;;;;;;;;;;;;;2.93;56.89;99211.88;4474711;32;32573;-87
2023/11/30 06:20:44;;;;;;;;;;;;;;;2.59;57.74;99215.22;4463946;32;33155;-87
2023/11/30 06:23:11;;;;;;;;;;;;;;;2.48;58.39;99211.97;4448008;32;33289;-87
2023/11/30 06:25:39;;;;;;;;;;;;;;;2.41;58.33;99197.34;4474687;31;32731;-87
2023/11/30 06:28:06;;;;;;;;;;;;;;;2.15;59.38;99198.72;4461941;32;34417;-86
2023/11/30 06:30:34;;;;;;;;;;;;;;;2.78;57.93;99206.13;4464605;32;32225;-86
2023/11/30 06:33:01;;;;;;;;;;;;;;;2.76;57.61;99205.31;4450981;32;32969;-86
2023/11/30 06:35:29;;;;;;;;;;;;;;;2.55;58.27;99208.34;4460430;32;33102;-86
2023/11/30 06:37:56;;;;;;;;;;;;;;;2.69;57.92;99203.69;4457483;32;33104;-86
2023/11/30 06:40:24;;;;;;;;;;;;;;;2.62;58.03;99199.53;4449347;32;34087;-85
2023/11/30 06:42:52;;;;;;;;;;;;;;;2.16;59.24;99205.66;4461049;32;35154;-86
2023/11/30 06:45:19;;;;;;;;;;;;;;;1.94;60.03;99220.81;4453896;32;33219;-86
2023/11/30 06:47:47;;;;;;;;;;;;;;;2.03;60.10;99228.44;4459983;32;33871;-86
2023/11/30 06:50:14;;;;;;;;;;;;;;;2.21;59.89;99232.47;4467812;32;34077;-86
2023/11/30 06:52:41;;;;;;;;;;;;;;;2.41;59.28;99231.22;4478324;32;34478;-86
2023/11/30 06:55:09;;;;;;;;;;;;;;;2.52;58.45;99235.34;4461071;32;33821;-86
2023/11/30 06:57:38;;;;;;;;;;;;;;;2.40;59.33;99239.94;4479385;32;33616;-86
2023/11/30 07:00:10;;;;;;;;;;;;;;;2.55;58.74;99239.63;4472644;32;34774;-86
2023/11/30 07:02:38;;;;;;;;;;;;;;;2.28;59.76;99228.88;4477440;31;34423;-86
2023/11/30 07:05:06;;;;;;;;;;;;;;;2.08;60.18;99230.13;4447590;32;32249;-86
2023/11/30 07:07:34;;;;;;;;;;;;;;;2.59;58.79;99220.44;4465036;31;33267;-86
2023/11/30 07:10:04;;;;;;;;;;;;;;;2.51;59.34;99222.31;4470165;32;34679;-86
2023/11/30 07:12:32;;;;;;;;;;;;;;;2.23;60.18;99233.31;4464916;32;32627;-86
2023/11/30 07:14:59;;;;;;;;;;;;;;;2.23;60.42;99248.94;4468395;32;32703;-86
2023/11/30 07:17:28;;;;;;;;;;;;;;;2.26;60.16;99248.88;4458418;32;33106;-86
2023/11/30 07:19:55;;;;;;;;;;;;;;;2.39;60.24;99244.28;4462798;32;33269;-86
2023/11/30 07:22:24;;;;;;;;;;;;;;;2.18;61.25;99235.12;4477310;32;33544;-86
2023/11/30 07:24:52;;;;;;;;;;;;;;;2.49;60.75;99248.44;4462570;32;33369;-86
2023/11/30 07:27:20;;;;;;;;;;;;;;;2.32;61.95;99247.88;4475951;31;34410;-86
2023/11/30 07:29:47;;;;;;;;;;;;;;;2.05;62.95;99238.87;4459896;32;33909;-86
2023/11/30 07:32:15;;;;;;;;;;;;;;;2.25;62.83;99248.91;4451957;32;33680;-86
2023/11/30 07:34:46;;;;;;;;;;;;;;;2.23;63.00;99238.53;4453584;32;32367;-86
2023/11/30 07:37:15;;;;;;;;;;;;;;;1.90;64.52;99226.97;4451239;32;33242;-86
2023/11/30 07:39:42;;;;;;;;;;;;;;;1.93;64.82;99244.28;4462765;32;34953;-86
2023/11/30 07:42:10;;;;;;;;;;;;;;;2.03;64.87;99232.81;4470535;31;33504;-86
2023/11/30 07:44:37;;;;;;;;;;;;;;;2.03;64.91;99238.87;4477677;31;33214;-87
2023/11/30 07:47:05;;;;;;;;;;;;;;;2.20;64.75;99235.97;4450477;32;33550;-86
2023/11/30 07:49:33;;;;;;;;;;;;;;;2.60;64.26;99232.56;4453952;32;35419;-85
2023/11/30 07:52:01;;;;;;;;;;;;;;;2.41;65.75;99237.28;4473041;32;35328;-85
2023/11/30 07:54:29;;;;;;;;;;;;;;;2.28;66.18;99226.28;4451485;32;32417;-85
2023/11/30 07:56:56;;;;;;;;;;;;;;;2.31;66.31;99223.59;4451187;32;35316;-86
2023/11/30 07:59:24;;;;;;;;;;;;;;;2.48;65.77;99222.41;4455161;32;33795;-86
2023/11/30 08:01:52;;;;;;;;;;;;;;;2.29;66.22;99212.34;4474744;32;33172;-86
2023/11/30 08:04:20;;;;;;;;;;;;;;;2.15;67.17;99208.28;4466015;32;33281;-86
2023/11/30 08:06:48;;;;;;;;;;;;;;;2.23;66.69;99206.38;4478553;32;34367;-85
2023/11/30 08:09:16;;;;;;;;;;;;;;;2.28;66.64;99202.81;4463352;32;34635;-85
2023/11/30 08:11:44;;;;;;;;;;;;;;;1.72;68.76;99215.13;4463710;32;33305;-85
2023/11/30 08:14:12;;;;;;;;;;;;;;;1.72;69.26;99209.09;4461994;32;32079;-85
2023/11/30 08:16:39;;;;;;;;;;;;;;;1.81;69.48;99210.66;4450410;32;32997;-85
2023/11/30 08:19:08;;;;;;;;;;;;;;;1.60;70.29;99204.06;4457670;32;34095;-86
2023/11/30 08:21:40;;;;;;;;;;;;;;;1.83;69.80;99195.88;4477255;32;33859;-86
2023/11/30 08:24:08;;;;;;;;;;;;;;;1.88;69.38;99192.28;4462268;32;32142;-85
2023/11/30 08:26:36;;;;;;;;;;;;;;;2.05;68.91;99192.00;4461628;32;34636;-86
2023/11/30 08:29:04;;;;;;;;;;;;;;;1.80;69.90;99181.16;4474513;32;34906;-86
2023/11/30 08:31:33;;;;;;;;;;;;;;;1.76;70.45;99185.56;4460213;32;33617;-86
2023/11/30 08:34:01;;;;;;;;;;;;;;;1.54;70.77;99179.03;4472744;32;32732;-86
2023/11/30 08:36:28;;;;;;;;;;;;;;;1.86;70.42;99180.19;4476462;32;33714;-86
2023/11/30 08:38:56;;;;;;;;;;;;;;;1.79;70.49;99175.09;4476399;32;33554;-86
2023/11/30 08:41:24;;;;;;;;;;;;;;;2.01;69.94;99170.34;4475009;32;33448;-86
2023/11/30 08:43:51;;;;;;;;;;;;;;;1.98;70.08;99169.53;4461661;32;30668;-86
2023/11/30 08:46:23;;;;;;;;;;;;;;;2.01;70.18;99172.09;4476387;32;34577;-86
2023/11/30 08:48:51;;;;;;;;;;;;;;;1.91;71.39;99171.41;4474164;32;33674;-86
2023/11/30 08:51:19;;;;;;;;;;;;;;;2.15;70.53;99166.62;4462175;32;34775;-86
2023/11/30 08:53:47;;;;;;;;;;;;;;;1.67;72.22;99170.13;4462228;32;33315;-86
2023/11/30 08:56:14;;;;;;;;;;;;;;;2.13;70.65;99165.78;4473087;32;34130;-86
2023/11/30 08:58:43;;;;;;;;;;;;;;;1.88;71.58;99178.41;4459876;32;34244;-85
2023/11/30 09:01:10;;;;;;;;;;;;;;;2.17;70.47;99170.91;4473910;32;34147;-86
2023/11/30 09:03:38;;;;;;;;;;;;;;;1.88;71.32;99178.41;4464158;32;32766;-86
2023/11/30 09:06:09;;;;;;;;;;;;;;;1.99;71.54;99177.34;4460493;32;32615;-86
2023/11/30 09:08:39;;;;;;;;;;;;;;;2.16;71.15;99161.38;4448605;32;32980;-86
2023/11/30 09:11:06;;;;;;;;;;;;;;;1.61;73.10;99171.97;4462915;32;34854;-86
2023/11/30 09:13:35;;;;;;;;;;;;;;;2.07;71.47;99177.19;4474487;32;32590;-86
2023/11/30 09:16:03;;;;;;;;;;;;;;;2.17;71.24;99170.91;4471964;32;34061;-87
2023/11/30 09:18:32;;;;;;;;;;;;;;;2.01;71.27;99159.09;4466780;32;32136;-86
2023/11/30 09:21:01;;;;;;;;;;;;;;;2.31;70.63;99158.44;4463391;32;34492;-86
2023/11/30 09:23:30;;;;;;;;;;;;;;;2.33;70.97;99165.38;4466716;32;32369;-86
2023/11/30 09:25:57;;;;;;;;;;;;;;;2.27;71.19;99156.78;4465696;32;32348;-86
2023/11/30 09:28:25;;;;;;;;;;;;;;;2.52;70.26;99154.56;4450743;32;33295;-86
2023/11/30 09:30:53;;;;;;;;;;;;;;;2.67;70.01;99150.75;4476279;32;32099;-86
2023/11/30 09:33:20;;;;;;;;;;;;;;;2.86;68.80;99150.34;4461960;32;35221;-86
2023/11/30 09:35:48;;;;;;;;;;;;;;;2.83;69.46;99140.84;4464838;32;33519;-86
2023/11/30 09:38:16;;;;;;;;;;;;;;;2.40;70.37;99140.94;4474778;32;33954;-86
2023/11/30 09:40:43;;;;;;;;;;;;;;;2.58;69.65;99150.97;4476513;32;33631;-85
2023/11/30 09:43:10;;;;;;;;;;;;;;;3.01;68.99;99134.34;4463592;32;33986;-85
2023/11/30 09:45:38;;;;;;;;;;;;;;;2.93;69.08;99137.13;4464021;32;34062;-86
2023/11/30 09:48:06;;;;;;;;;;;;;;;2.43;70.29;99135.66;4454444;32;34938;-86
2023/11/30 09:50:33;;;;;;;;;;;;;;;3.08;69.35;99131.53;4463918;32;34119;-87
2023/11/30 09:53:01;;;;;;;;;;;;;;;3.21;68.43;99124.28;4452391;32;32253;-87
2023/11/30 09:55:28;;;;;;;;;;;;;;;3.02;68.48;99117.78;4464831;32;34625;-87
2023/11/30 09:57:56;;;;;;;;;;;;;;;3.25;67.88;99114.63;4464460;32;34043;-87
2023/11/30 10:00:24;;;;;;;;;;;;;;;3.21;68.07;99113.84;4440264;32;32346;-87
2023/11/30 10:02:52;;;;;;;;;;;;;;;2.91;69.35;99104.16;4474055;32;34071;-87
2023/11/30 10:05:20;;;;;;;;;;;;;;;2.84;69.62;99106.03;4473857;32;33972;-86
2023/11/30 10:07:48;;;;;;;;;;;;;;;2.88;69.11;99092.03;4473220;32;34237;-86
2023/11/30 10:10:16;;;;;;;;;;;;;;;2.57;70.65;99097.12;4461084;32;34105;-86
2023/11/30 10:12:44;;;;;;;;;;;;;;;2.94;69.61;99088.41;4474812;32;33842;-87
2023/11/30 10:15:11;;;;;;;;;;;;;;;3.26;68.30;99087.63;4463933;32;31260;-87
2023/11/30 10:17:39;;;;;;;;;;;;;;;3.26;68.41;99083.28;4474943;32;33225;-87
2023/11/30 10:20:11;;;;;;;;;;;;;;;3.43;67.66;99089.81;4460339;32;33887;-88
2023/11/30 10:22:39;;;;;;;;;;;;;;;3.04;69.44;99082.12;4463806;32;32106;-87
2023/11/30 10:25:07;;;;;;;;;;;;;;;3.14;69.04;99067.94;4466189;32;33748;-87
2023/11/30 10:27:35;;;;;;;;;;;;;;;2.79;70.06;99061.81;4455378;32;34241;-87
2023/11/30 10:30:04;;;;;;;;;;;;;;;2.95;69.63;99064.94;4475527;32;33757;-87
2023/11/30 10:32:35;;;;;;;;;;;;;;;3.05;69.17;99065.56;4451940;32;32564;-87
2023/11/30 10:35:06;;;;;;;;;;;;;;;2.74;69.79;99058.47;4476196;32;34186;-87
2023/11/30 10:37:42;;;;;;;;;;;;;;;3.01;69.79;99037.84;4467687;32;35055;-86
2023/11/30 10:40:10;;;;;;;;;;;;;;;3.17;68.79;99026.09;4460108;32;33232;-86
2023/11/30 10:42:39;;;;;;;;;;;;;;;3.13;68.62;99019.25;4464295;32;32411;-86
2023/11/30 10:45:06;;;;;;;;;;;;;;;2.82;70.52;99024.41;4452061;32;33091;-86
2023/11/30 10:47:34;;;;;;;;;;;;;;;2.89;69.89;99025.09;4465092;32;34273;-86
2023/11/30 10:50:05;;;;;;;;;;;;;;;3.18;69.06;99016.53;4449307;32;32675;-86
2023/11/30 10:52:33;;;;;;;;;;;;;;;3.56;68.18;99013.75;4465856;32;32434;-86
2023/11/30 10:55:09;;;;;;;;;;;;;;;3.19;69.46;99000.00;4461499;32;34029;-86
2023/11/30 10:57:41;;;;;;;;;;;;;;;3.26;69.40;98993.72;4462439;32;34114;-86
2023/11/30 11:00:10;;;;;;;;;;;;;;;3.37;68.35;98999.50;4454220;32;33338;-86
2023/11/30 11:02:39;;;;;;;;;;;;;;;3.29;68.94;98991.03;4477301;31;33068;-86
2023/11/30 11:05:08;;;;;;;;;;;;;;;3.25;69.25;98992.84;4463216;32;32788;-86
2023/11/30 11:07:35;;;;;;;;;;;;;;;3.59;67.77;98987.56;4459793;32;32870;-86
2023/11/30 11:10:06;;;;;;;;;;;;;;;3.60;67.80;98975.34;4460528;32;35703;-86
2023/11/30 11:12:37;;;;;;;;;;;;;;;3.20;68.51;98973.88;4467530;32;32301;-86
2023/11/30 11:15:08;;;;;;;;;;;;;;;3.21;69.07;98975.56;4464051;32;32452;-86
2023/11/30 11:17:48;;;;;;;;;;;;;;;3.47;68.65;98980.09;4472916;31;33495;-86
2023/11/30 11:20:23;;;;;;;;;;;;;;;3.17;69.90;98973.94;4470130;32;33237;-86
2023/11/30 11:23:02;;;;;;;;;;;;;;;2.97;71.06;98971.87;4461084;32;33640;-86
2023/11/30 11:25:49;;;;;;;;;;;;;;;3.22;69.46;98966.84;4468630;32;34214;-86
2023/11/30 11:28:17;;;;;;;;;;;;;;;3.10;69.41;98968.94;4463115;32;34796;-87
2023/11/30 11:30:46;;;;;;;;;;;;;;;3.60;68.55;98962.31;4459189;31;31691;-86
2023/11/30 11:33:15;;;;;;;;;;;;;;;3.45;68.62;98967.97;4459425;32;32369;-87
2023/11/30 11:35:43;;;;;;;;;;;;;;;3.14;70.37;98984.47;4465206;32;33801;-86
2023/11/30 11:38:11;;;;;;;;;;;;;;;3.30;70.01;98969.25;4462210;32;33430;-87
2023/11/30 11:40:39;;;;;;;;;;;;;;;3.50;69.63;98971.28;4461736;32;34899;-86
2023/11/30 11:43:07;;;;;;;;;;;;;;;3.55;69.20;98956.34;4460129;32;32575;-86
2023/11/30 11:45:36;;;;;;;;;;;;;;;3.42;69.40;98955.00;4472274;32;34138;-86
2023/11/30 11:48:04;;;;;;;;;;;;;;;3.42;69.39;98947.16;4463064;32;34385;-87
2023/11/30 11:50:33;;;;;;;;;;;;;;;3.50;69.51;98951.28;4461907;32;34192;-87
2023/11/30 11:53:01;;;;;;;;;;;;;;;3.56;68.82;98934.56;4458922;32;33503;-87
2023/11/30 11:55:29;;;;;;;;;;;;;;;2.99;71.28;98932.69;4470263;32;34210;-87
2023/11/30 11:57:56;;;;;;;;;;;;;;;3.00;71.42;98940.50;4464218;32;32954;-87
2023/11/30 12:00:25;;;;;;;;;;;;;;;3.12;70.89;98948.87;4463606;32;33561;-88
2023/11/30 12:03:04;;;;;;;;;;;;;;;3.21;70.08;98951.25;4453669;32;33175;-87
2023/11/30 12:05:32;;;;;;;;;;;;;;;3.31;69.51;98950.09;4460070;32;34185;-87
2023/11/30 12:08:00;;;;;;;;;;;;;;;3.06;71.16;98945.53;4472221;32;33498;-88
2023/11/30 12:10:28;;;;;;;;;;;;;;;3.45;69.63;98950.56;4451790;32;33198;-88
2023/11/30 12:12:56;;;;;;;;;;;;;;;3.33;69.88;98935.25;4474558;32;33284;-88
2023/11/30 12:15:24;;;;;;;;;;;;;;;3.38;69.53;98942.97;4449119;32;34159;-87
2023/11/30 12:17:52;;;;;;;;;;;;;;;3.47;69.57;98945.31;4460193;32;33203;-87
2023/11/30 12:20:20;;;;;;;;;;;;;;;3.12;70.81;98944.50;4460195;32;34915;-87
2023/11/30 12:22:48;;;;;;;;;;;;;;;3.30;70.35;98933.56;4475466;32;32879;-86
2023/11/30 12:25:16;;;;;;;;;;;;;;;2.93;71.71;98938.09;4473176;32;33653;-87
2023/11/30 12:27:44;;;;;;;;;;;;;;;3.50;68.96;98935.59;4458720;32;34647;-87
2023/11/30 12:30:12;;;;;;;;;;;;;;;3.71;68.64;98928.94;4447894;32;32742;-87
2023/11/30 12:32:39;;;;;;;;;;;;;;;3.52;69.31;98933.84;4459027;32;33374;-87
2023/11/30 12:35:07;;;;;;;;;;;;;;;3.28;69.87;98927.56;4457522;32;33134;-87
2023/11/30 12:37:35;;;;;;;;;;;;;;;3.49;69.74;98922.62;4461733;32;34615;-86
2023/11/30 12:40:04;;;;;;;;;;;;;;;3.48;69.63;98913.94;4462517;32;32616;-87
2023/11/30 12:42:31;;;;;;;;;;;;;;;3.63;68.58;98903.94;4468499;32;32486;-89
2023/11/30 12:44:59;;;;;;;;;;;;;;;3.98;67.91;98898.47;4447686;32;32965;-87
2023/11/30 12:47:27;;;;;;;;;;;;;;;3.80;67.35;98896.47;4463043;32;31972;-88
2023/11/30 12:49:54;;;;;;;;;;;;;;;3.69;69.07;98882.88;4465746;32;33234;-88
2023/11/30 12:52:22;;;;;;;;;;;;;;;3.64;69.38;98884.75;4450839;32;32442;-87
2023/11/30 12:54:50;;;;;;;;;;;;;;;3.79;68.41;98884.28;4475440;32;32224;-88
2023/11/30 12:57:18;;;;;;;;;;;;;;;3.67;69.28;98885.53;4464214;32;33592;-88
2023/11/30 12:59:46;;;;;;;;;;;;;;;3.19;71.05;98877.41;4458092;32;33179;-89
2023/11/30 13:02:14;;;;;;;;;;;;;;;3.41;70.20;98869.78;4457484;32;33260;-88